createdAt,value
2019-02-26T00:00:17.130Z,15.40
2019-02-26T00:05:17.333Z,16.30
2019-02-26T00:10:11.665Z,14.73
2019-02-26T00:15:13.337Z,15.23
2019-02-26T00:20:10.946Z,14.33
2019-02-26T00:25:08.490Z,16.07
2019-02-26T00:30:11.291Z,15.67
2019-02-26T00:35:08.586Z,16.37
2019-02-26T00:40:07.901Z,15.83
2019-02-26T00:45:29.488Z,15.80
2019-02-26T00:50:28.029Z,14.43
2019-02-26T00:55:27.303Z,15.97
2019-02-26T01:00:21.937Z,14.33
2019-02-26T01:05:18.528Z,14.00
2019-02-26T01:10:16.398Z,13.80
2019-02-26T01:15:19.013Z,13.80
2019-02-26T01:20:16.042Z,15.17
2019-02-26T01:25:13.437Z,14.07
2019-02-26T01:30:18.215Z,14.10
2019-02-26T01:35:12.927Z,13.93
2019-02-26T01:40:13.793Z,13.27
2019-02-26T01:45:13.664Z,15.23
2019-02-26T01:50:11.609Z,15.07
2019-02-26T01:55:09.841Z,14.27
2019-02-26T02:00:09.531Z,13.00
2019-02-26T02:05:07.106Z,13.43
2019-02-26T02:10:05.639Z,13.10
2019-02-26T02:15:02.587Z,12.43
2019-02-26T02:19:58.479Z,12.80
2019-02-26T02:24:55.692Z,12.70
2019-02-26T02:29:54.831Z,12.60
2019-02-26T02:34:49.482Z,14.30
2019-02-26T02:39:45.386Z,12.27
2019-02-26T02:44:44.856Z,12.47
2019-02-26T02:49:42.482Z,11.00
2019-02-26T02:54:41.095Z,14.17
2019-02-26T02:59:39.407Z,13.37
2019-02-26T03:04:34.961Z,12.87
2019-02-26T03:09:31.822Z,12.57
2019-02-26T03:14:30.768Z,13.20
2019-02-26T03:19:26.466Z,12.97
2019-02-26T03:24:25.379Z,13.80
2019-02-26T03:29:20.153Z,12.17
2019-02-26T03:34:21.804Z,12.20
2019-02-26T03:39:13.869Z,13.07
2019-02-26T03:44:09.757Z,12.53
2019-02-26T03:49:05.695Z,13.50
2019-02-26T03:54:01.687Z,12.10
2019-02-26T03:59:00.241Z,12.57
2019-02-26T04:03:57.214Z,13.90
2019-02-26T04:08:55.782Z,13.67
2019-02-26T04:13:52.147Z,12.33
2019-02-26T04:18:49.100Z,13.77
2019-02-26T04:23:46.768Z,12.07
2019-02-26T04:28:49.685Z,13.17
2019-02-26T04:33:53.748Z,11.93
2019-02-26T04:39:27.282Z,12.73
2019-02-26T04:45:08.956Z,12.43
2019-02-26T04:50:08.646Z,13.37
2019-02-26T04:55:06.281Z,13.40
2019-02-26T05:00:05.233Z,11.93
2019-02-26T05:05:00.759Z,13.97
2019-02-26T05:09:58.779Z,12.57
2019-02-26T05:15:13.929Z,14.00
2019-02-26T05:20:12.635Z,12.87
2019-02-26T05:25:10.363Z,12.90
2019-02-26T05:30:09.429Z,13.40
2019-02-26T05:35:05.350Z,11.97
2019-02-26T05:40:01.226Z,13.43
2019-02-26T05:45:00.823Z,13.97
2019-02-26T05:49:59.550Z,13.70
2019-02-26T05:54:56.601Z,12.13
2019-02-26T05:59:52.496Z,13.07
2019-02-26T06:04:48.379Z,14.43
2019-02-26T06:09:45.473Z,12.63
2019-02-26T06:14:43.860Z,12.70
2019-02-26T06:19:44.771Z,14.50
2019-02-26T06:24:40.459Z,15.10
2019-02-26T06:29:37.413Z,14.20
2019-02-26T06:34:33.372Z,13.57
2019-02-26T06:39:31.693Z,14.83
2019-02-26T06:44:27.062Z,14.50
2019-02-26T06:49:24.597Z,14.60
2019-02-26T06:54:22.668Z,14.90
2019-02-26T06:59:22.338Z,13.40
2019-02-26T07:04:18.218Z,16.30
2019-02-26T07:09:16.421Z,14.30
2019-02-26T07:14:11.898Z,15.50
2019-02-26T07:19:09.151Z,14.43
2019-02-26T07:24:07.662Z,18.70
2019-02-26T07:29:05.606Z,18.00
2019-02-26T07:34:03.083Z,15.17
2019-02-26T07:38:59.005Z,19.63
2019-02-26T07:43:54.920Z,16.47
2019-02-26T07:48:53.956Z,17.80
2019-02-26T07:53:51.145Z,18.23
2019-02-26T07:58:46.883Z,20.20
2019-02-26T08:03:43.951Z,19.80
2019-02-26T08:08:42.058Z,20.07
2019-02-26T08:13:38.358Z,20.90
2019-02-26T08:18:34.287Z,18.27
2019-02-26T08:23:30.175Z,18.83
2019-02-26T08:28:26.062Z,17.03
2019-02-26T08:33:22.078Z,15.97
2019-02-26T08:38:17.965Z,16.90
2019-02-26T08:43:13.867Z,14.90
2019-02-26T08:48:09.758Z,14.50
2019-02-26T08:53:05.646Z,16.30
2019-02-26T08:58:01.539Z,16.60
2019-02-26T09:02:57.424Z,17.73
2019-02-26T09:07:53.430Z,16.87
2019-02-26T09:12:51.717Z,16.53
2019-02-26T09:17:47.187Z,16.87
2019-02-26T09:22:45.763Z,15.40
2019-02-26T09:27:42.955Z,14.07
2019-02-26T09:32:40.237Z,14.83
2019-02-26T09:37:36.697Z,19.80
2019-02-26T09:42:32.610Z,16.27
2019-02-26T09:47:30.891Z,16.43
2019-02-26T09:52:27.771Z,15.23
2019-02-26T09:57:25.926Z,15.20
2019-02-26T10:02:24.104Z,16.07
2019-02-26T10:07:19.669Z,15.90
2019-02-26T10:12:17.165Z,16.77
2019-02-26T10:17:14.122Z,17.20
2019-02-26T10:22:13.643Z,17.83
2019-02-26T10:27:09.347Z,16.60
2019-02-26T10:32:11.220Z,15.93
2019-02-26T10:37:06.453Z,15.80
2019-02-26T10:42:04.912Z,16.57
2019-02-26T10:47:08.743Z,15.77
2019-02-26T10:52:07.293Z,17.00
2019-02-26T10:57:08.507Z,16.90
2019-02-26T11:02:07.770Z,18.00
2019-02-26T11:07:08.451Z,17.50
2019-02-26T11:12:05.189Z,17.50
2019-02-26T11:17:00.146Z,18.40
2019-02-26T11:21:58.681Z,20.40
2019-02-26T11:26:53.841Z,17.40
2019-02-26T11:31:49.832Z,16.53
2019-02-26T11:36:45.721Z,16.53
2019-02-26T11:41:41.603Z,18.07
2019-02-26T11:46:37.488Z,19.67
2019-02-26T11:51:37.167Z,19.00
2019-02-26T11:56:31.184Z,16.73
2019-02-26T12:01:29.325Z,17.80
2019-02-26T12:06:25.336Z,19.73
2019-02-26T12:11:23.324Z,18.67
2019-02-26T12:16:19.413Z,16.70
2019-02-26T12:21:15.323Z,18.33
2019-02-26T12:26:11.207Z,16.20
2019-02-26T12:31:09.915Z,16.13
2019-02-26T12:36:07.461Z,16.67
2019-02-26T12:41:02.775Z,14.80
2019-02-26T12:46:00.911Z,16.40
2019-02-26T12:50:58.466Z,19.50
2019-02-26T12:55:56.502Z,16.97
2019-02-26T13:00:52.105Z,18.47
2019-02-26T13:05:49.159Z,18.63
2019-02-26T13:10:49.578Z,17.27
2019-02-26T13:15:44.845Z,20.17
2019-02-26T13:20:44.454Z,17.90
2019-02-26T13:25:41.379Z,16.77
2019-02-26T13:30:37.451Z,17.83
2019-02-26T13:35:33.337Z,17.77
2019-02-26T13:40:29.274Z,17.20
2019-02-26T13:45:30.595Z,17.20
2019-02-26T13:50:27.672Z,17.90
2019-02-26T13:55:23.560Z,20.83
2019-02-26T14:00:25.979Z,17.90
2019-02-26T14:05:17.424Z,19.10
2019-02-26T14:10:18.290Z,16.37
2019-02-26T14:15:21.372Z,19.23
2019-02-26T14:20:17.513Z,19.00
2019-02-26T14:25:13.410Z,18.43
2019-02-26T14:30:22.163Z,18.27
2019-02-26T14:35:20.317Z,17.83
2019-02-26T14:40:19.490Z,19.90
2019-02-26T14:45:22.196Z,17.67
2019-02-26T14:50:43.213Z,18.40
2019-02-26T14:55:39.207Z,18.43
2019-02-26T15:00:35.133Z,16.23
2019-02-26T15:05:31.081Z,17.07
2019-02-26T15:10:27.079Z,16.67
2019-02-26T15:15:24.195Z,16.80
2019-02-26T15:20:26.370Z,15.93
2019-02-26T15:25:24.978Z,17.07
2019-02-26T15:30:21.835Z,14.73
2019-02-26T15:35:17.828Z,15.50
2019-02-26T15:40:15.301Z,17.63
2019-02-26T15:45:19.285Z,16.47
2019-02-26T15:50:17.192Z,15.20
2019-02-26T15:55:28.140Z,16.23
2019-02-26T16:05:41.918Z,15.17
2019-02-26T16:10:38.384Z,13.80
2019-02-26T16:15:40.863Z,13.33
2019-02-26T16:20:36.858Z,14.77
2019-02-26T16:25:33.212Z,14.47
2019-02-26T16:30:30.306Z,14.50
2019-02-26T16:35:26.646Z,15.50
2019-02-26T16:40:24.548Z,15.47
2019-02-26T16:45:34.308Z,15.97
2019-02-26T16:50:29.890Z,16.57
2019-02-26T16:55:26.536Z,16.90
2019-02-26T17:00:48.848Z,16.30
2019-02-26T17:05:48.287Z,15.83
2019-02-26T17:10:44.350Z,15.37
2019-02-26T17:15:40.873Z,15.37
2019-02-26T17:20:36.934Z,15.67
2019-02-26T17:25:32.835Z,13.43
2019-02-26T17:30:28.752Z,16.23
2019-02-26T17:35:28.753Z,15.43
2019-02-26T17:40:23.635Z,15.60
2019-02-26T17:45:26.823Z,15.93
2019-02-26T17:50:34.617Z,15.80
2019-02-26T17:55:30.608Z,15.47
2019-02-26T18:00:28.207Z,18.00
2019-02-26T18:05:24.077Z,17.80
2019-02-26T18:10:22.567Z,15.20
2019-02-26T18:15:18.612Z,17.03
2019-02-26T18:20:19.868Z,17.10
2019-02-26T18:25:19.836Z,16.03
2019-02-26T18:30:37.527Z,16.50
2019-02-26T18:35:33.421Z,15.63
2019-02-26T18:40:29.315Z,14.90
2019-02-26T18:45:27.988Z,16.03
2019-02-26T18:50:27.837Z,14.10
2019-02-26T18:55:27.974Z,14.53
2019-02-26T19:00:40.780Z,13.80
2019-02-26T19:05:36.684Z,15.50
2019-02-26T19:10:32.572Z,14.80
2019-02-26T19:15:31.218Z,13.70
2019-02-26T19:20:30.013Z,14.37
2019-02-26T19:25:25.910Z,17.70
2019-02-26T19:30:22.221Z,18.20
2019-02-26T19:35:18.118Z,16.00
2019-02-26T19:40:17.319Z,15.93
2019-02-26T19:45:16.602Z,14.80
2019-02-26T19:50:14.818Z,14.47
2019-02-26T19:55:16.953Z,14.37
2019-02-26T20:00:14.509Z,13.20
2019-02-26T20:05:13.410Z,12.40
2019-02-26T20:10:15.301Z,13.23
2019-02-26T20:15:13.383Z,11.67
2019-02-26T20:20:17.465Z,12.60
2019-02-26T20:25:23.873Z,13.83
2019-02-26T20:30:23.907Z,13.23
2019-02-26T20:35:19.879Z,14.10
2019-02-26T20:40:17.725Z,14.43
2019-02-26T20:45:22.905Z,13.13
2019-02-26T20:50:21.231Z,13.30
2019-02-26T20:55:21.489Z,13.83
2019-02-26T21:00:18.490Z,16.27
2019-02-26T21:05:14.660Z,15.20
2019-02-26T21:10:15.074Z,15.83
2019-02-26T21:15:18.196Z,16.97
2019-02-26T21:20:14.178Z,17.80
2019-02-26T21:25:11.776Z,18.90
2019-02-26T21:30:13.606Z,19.33
2019-02-26T21:35:10.293Z,17.40
2019-02-26T21:40:08.779Z,17.53
2019-02-26T21:45:12.982Z,18.07
2019-02-26T21:50:13.560Z,17.80
2019-02-26T21:55:14.720Z,18.43
2019-02-26T22:00:13.619Z,17.67
2019-02-26T22:05:09.704Z,18.77
2019-02-26T22:10:16.677Z,19.40
2019-02-26T22:15:21.339Z,18.43
2019-02-26T22:20:23.705Z,21.10
2019-02-26T22:25:17.447Z,18.23
2019-02-26T22:30:38.394Z,18.70
2019-02-26T22:35:34.280Z,17.70
2019-02-26T22:40:30.168Z,16.90
2019-02-26T22:45:27.956Z,17.40
2019-02-26T22:50:26.864Z,18.60
2019-02-26T22:55:22.171Z,19.43
2019-02-26T23:00:34.727Z,19.17
2019-02-26T23:05:30.612Z,17.50
2019-02-26T23:10:26.500Z,18.23
2019-02-26T23:15:45.854Z,19.80
2019-02-26T23:20:42.872Z,17.90
2019-02-26T23:25:38.951Z,19.67
2019-02-26T23:30:34.966Z,18.70
2019-02-26T23:35:30.848Z,17.73
2019-02-26T23:40:27.473Z,20.87
2019-02-26T23:45:45.077Z,18.90
2019-02-26T23:50:41.019Z,16.60
2019-02-26T23:55:37.012Z,14.73
